createdAt,value
2023-02-17T00:01:21.162Z,18.58
2023-02-17T00:03:51.157Z,18.58
2023-02-17T00:06:19.556Z,18.57
2023-02-17T00:08:46.537Z,18.56
2023-02-17T00:11:20.453Z,18.53
2023-02-17T00:13:49.502Z,18.52
2023-02-17T00:16:26.762Z,18.45
2023-02-17T00:18:58.348Z,18.55
2023-02-17T00:21:28.225Z,18.59
2023-02-17T00:23:57.344Z,18.62
2023-02-17T00:26:27.163Z,18.64
2023-02-17T00:28:55.961Z,18.64
2023-02-17T00:31:25.376Z,18.59
2023-02-17T00:34:00.331Z,18.58
2023-02-17T00:36:29.636Z,18.58
2023-02-17T00:38:59.197Z,18.59
2023-02-17T00:41:29.536Z,18.58
2023-02-17T00:43:59.463Z,18.60
2023-02-17T00:46:28.451Z,18.58
2023-02-17T00:48:55.190Z,18.57
2023-02-17T00:51:22.070Z,18.57
2023-02-17T00:53:51.242Z,18.58
2023-02-17T00:56:23.182Z,18.56
2023-02-17T00:58:52.510Z,18.58
2023-02-17T01:01:19.147Z,18.60
2023-02-17T01:03:48.217Z,18.59
2023-02-17T01:06:21.800Z,18.59
2023-02-17T01:08:50.792Z,18.59
2023-02-17T01:11:29.212Z,18.66
2023-02-17T01:14:01.169Z,18.66
2023-02-17T01:16:36.279Z,18.66
2023-02-17T01:19:10.312Z,18.64
2023-02-17T01:21:38.472Z,18.62
2023-02-17T01:24:06.177Z,18.59
2023-02-17T01:26:33.254Z,18.59
2023-02-17T01:29:04.673Z,18.59
2023-02-17T01:31:31.692Z,18.57
2023-02-17T01:34:00.145Z,18.58
2023-02-17T01:36:26.946Z,18.60
2023-02-17T01:38:56.299Z,18.59
2023-02-17T01:41:26.654Z,18.61
2023-02-17T01:44:17.827Z,18.62
2023-02-17T01:46:49.637Z,18.61
2023-02-17T01:49:30.569Z,18.59
2023-02-17T01:52:10.624Z,18.58
2023-02-17T01:54:55.582Z,18.61
2023-02-17T01:57:23.633Z,18.58
2023-02-17T01:59:52.417Z,18.60
2023-02-17T02:02:19.302Z,18.60
2023-02-17T02:04:49.202Z,18.52
2023-02-17T02:07:38.055Z,18.57
2023-02-17T02:10:05.185Z,18.58
2023-02-17T02:12:36.564Z,18.58
2023-02-17T02:15:08.930Z,18.60
2023-02-17T02:17:54.270Z,18.60
2023-02-17T02:20:59.885Z,18.62
2023-02-17T02:23:51.351Z,18.63
2023-02-17T02:26:20.969Z,18.62
2023-02-17T02:28:53.563Z,18.63
2023-02-17T02:31:45.111Z,18.58
2023-02-17T02:34:24.183Z,18.62
2023-02-17T02:36:56.526Z,18.62
2023-02-17T02:39:25.018Z,18.61
2023-02-17T02:41:58.428Z,18.60
2023-02-17T02:44:27.225Z,18.57
2023-02-17T02:47:01.224Z,18.56
2023-02-17T02:49:31.229Z,18.52
2023-02-17T02:52:15.635Z,18.53
2023-02-17T02:55:06.489Z,18.56
2023-02-17T02:57:40.547Z,18.52
2023-02-17T03:00:19.384Z,18.60
2023-02-17T03:02:56.941Z,18.58
2023-02-17T03:05:41.572Z,18.62
2023-02-17T03:08:22.514Z,18.60
2023-02-17T03:10:55.474Z,18.62
2023-02-17T03:13:25.058Z,18.55
2023-02-17T03:15:56.455Z,18.61
2023-02-17T03:18:23.190Z,18.60
2023-02-17T03:20:54.908Z,18.60
2023-02-17T03:23:24.517Z,18.59
2023-02-17T03:25:51.360Z,18.57
2023-02-17T03:28:21.146Z,18.57
2023-02-17T03:30:47.833Z,18.58
2023-02-17T03:33:14.484Z,18.57
2023-02-17T03:35:41.561Z,18.61
2023-02-17T03:38:08.317Z,18.61
2023-02-17T03:40:34.979Z,18.60
2023-02-17T03:43:04.687Z,18.61
2023-02-17T03:45:33.536Z,18.63
2023-02-17T03:48:02.425Z,18.61
2023-02-17T03:50:32.001Z,18.61
2023-02-17T03:52:58.656Z,18.60
2023-02-17T03:55:25.399Z,18.58
2023-02-17T03:57:54.323Z,18.58
2023-02-17T04:00:23.223Z,18.49
2023-02-17T04:02:52.015Z,18.54
2023-02-17T04:05:20.932Z,18.51
2023-02-17T04:07:52.354Z,18.48
2023-02-17T04:10:21.907Z,18.49
2023-02-17T04:12:50.843Z,18.53
2023-02-17T04:15:17.612Z,18.55
2023-02-17T04:17:44.231Z,18.55
2023-02-17T04:20:11.472Z,18.57
2023-02-17T04:22:40.511Z,18.56
2023-02-17T04:25:07.347Z,18.56
2023-02-17T04:27:34.088Z,18.58
2023-02-17T04:30:03.765Z,18.59
2023-02-17T04:32:32.615Z,18.58
2023-02-17T04:34:59.357Z,18.55
2023-02-17T04:37:25.973Z,18.56
2023-02-17T04:39:52.665Z,18.55
2023-02-17T04:42:21.462Z,18.56
2023-02-17T04:44:48.134Z,18.52
2023-02-17T04:47:17.048Z,18.52
2023-02-17T04:49:46.031Z,18.53
2023-02-17T04:52:15.606Z,18.54
2023-02-17T04:54:44.716Z,18.53
2023-02-17T04:57:15.998Z,18.56
2023-02-17T04:59:42.501Z,18.55
2023-02-17T05:02:11.461Z,18.53
2023-02-17T05:04:38.180Z,18.51
2023-02-17T05:07:04.858Z,18.52
2023-02-17T05:09:34.362Z,18.52
2023-02-17T05:12:03.128Z,18.48
2023-02-17T05:14:32.183Z,18.47
2023-02-17T05:16:58.820Z,18.46
2023-02-17T05:19:27.816Z,18.46
2023-02-17T05:21:54.430Z,18.45
2023-02-17T05:24:28.526Z,18.47
2023-02-17T05:26:55.244Z,18.48
2023-02-17T05:29:23.360Z,18.51
2023-02-17T05:31:52.450Z,18.51
2023-02-17T05:34:21.770Z,18.50
2023-02-17T05:36:48.422Z,18.51
2023-02-17T05:39:15.129Z,18.52
2023-02-17T05:41:43.825Z,18.55
2023-02-17T05:44:10.506Z,18.53
2023-02-17T05:46:39.610Z,18.51
2023-02-17T05:49:06.469Z,18.49
2023-02-17T05:51:33.229Z,18.49
2023-02-17T05:54:02.058Z,18.46
2023-02-17T05:56:30.908Z,18.46
2023-02-17T05:59:00.650Z,18.45
2023-02-17T06:01:29.854Z,18.45
2023-02-17T06:03:56.474Z,18.46
2023-02-17T06:06:25.623Z,18.46
2023-02-17T06:09:00.786Z,18.47
2023-02-17T06:11:29.595Z,18.50
2023-02-17T06:13:56.325Z,18.54
2023-02-17T06:16:23.092Z,18.56
2023-02-17T06:18:49.793Z,18.55
2023-02-17T06:21:18.618Z,18.56
2023-02-17T06:23:47.451Z,18.56
2023-02-17T06:26:18.790Z,18.57
2023-02-17T06:28:47.956Z,18.59
2023-02-17T06:31:14.789Z,18.59
2023-02-17T06:33:43.622Z,18.58
2023-02-17T06:36:12.395Z,18.50
2023-02-17T06:38:41.224Z,18.47
2023-02-17T06:41:12.627Z,18.44
2023-02-17T06:43:39.259Z,18.47
2023-02-17T06:46:08.697Z,18.44
2023-02-17T06:48:35.958Z,18.47
2023-02-17T06:51:04.994Z,18.48
2023-02-17T06:53:34.920Z,15.73
2023-02-17T06:56:04.237Z,14.44
2023-02-17T06:58:36.291Z,13.43
2023-02-17T07:01:04.296Z,13.25
2023-02-17T07:03:34.722Z,13.41
2023-02-17T07:06:01.439Z,13.41
2023-02-17T07:08:30.452Z,13.25
2023-02-17T07:11:01.885Z,13.62
2023-02-17T07:13:35.879Z,15.31
2023-02-17T07:16:02.616Z,15.99
2023-02-17T07:18:29.342Z,16.34
2023-02-17T07:20:56.318Z,16.56
2023-02-17T07:23:25.983Z,16.71
2023-02-17T07:25:54.775Z,16.86
2023-02-17T07:28:26.842Z,16.97
2023-02-17T07:30:53.494Z,17.01
2023-02-17T07:33:20.166Z,17.09
2023-02-17T07:35:49.165Z,17.13
2023-02-17T07:38:18.172Z,17.18
2023-02-17T07:40:47.006Z,17.29
2023-02-17T07:43:17.576Z,17.47
2023-02-17T07:45:52.056Z,17.53
2023-02-17T07:48:18.699Z,17.61
2023-02-17T07:50:45.321Z,17.79
2023-02-17T07:53:17.041Z,17.90
2023-02-17T07:55:45.990Z,17.91
2023-02-17T07:58:12.650Z,17.98
2023-02-17T08:00:42.537Z,18.06
2023-02-17T08:03:10.836Z,18.16
2023-02-17T08:05:40.161Z,18.25
2023-02-17T08:08:25.426Z,18.31
2023-02-17T08:11:10.594Z,18.39
2023-02-17T08:13:37.377Z,18.45
2023-02-17T08:16:07.408Z,18.51
2023-02-17T08:18:37.254Z,18.58
2023-02-17T08:21:06.892Z,18.64
2023-02-17T08:23:35.299Z,18.71
2023-02-17T08:26:05.189Z,18.77
2023-02-17T08:28:33.421Z,18.82
2023-02-17T08:31:07.429Z,18.86
2023-02-17T08:33:36.481Z,18.91
2023-02-17T08:36:07.313Z,18.96
2023-02-17T08:38:36.904Z,19.01
2023-02-17T08:41:15.742Z,19.01
2023-02-17T08:43:42.917Z,19.13
2023-02-17T08:46:10.310Z,19.16
2023-02-17T08:48:37.201Z,19.23
2023-02-17T08:51:04.950Z,19.28
2023-02-17T08:53:31.784Z,19.29
2023-02-17T08:56:00.604Z,19.32
2023-02-17T08:58:29.559Z,19.35
2023-02-17T09:00:58.364Z,19.30
2023-02-17T09:03:30.232Z,19.38
2023-02-17T09:05:57.319Z,19.39
2023-02-17T09:08:24.218Z,19.40
2023-02-17T09:10:53.578Z,19.42
2023-02-17T09:13:20.379Z,19.45
2023-02-17T09:15:49.494Z,19.47
2023-02-17T09:18:16.679Z,19.47
2023-02-17T09:20:43.334Z,19.51
2023-02-17T09:23:10.122Z,19.52
2023-02-17T09:25:36.759Z,19.55
2023-02-17T09:28:08.678Z,19.57
2023-02-17T09:30:38.587Z,19.57
2023-02-17T09:33:07.589Z,19.58
2023-02-17T09:35:34.196Z,19.62
2023-02-17T09:38:03.660Z,19.64
2023-02-17T09:40:49.803Z,19.67
2023-02-17T09:43:18.805Z,19.68
2023-02-17T09:45:49.254Z,19.70
2023-02-17T09:48:20.740Z,19.71
2023-02-17T09:51:05.726Z,19.72
2023-02-17T09:53:40.726Z,19.74
2023-02-17T09:56:10.112Z,19.67
2023-02-17T09:58:41.487Z,19.64
2023-02-17T10:01:12.343Z,19.68
2023-02-17T10:03:45.314Z,19.61
2023-02-17T10:06:20.982Z,19.66
2023-02-17T10:09:05.079Z,19.62
2023-02-17T10:11:56.403Z,19.60
2023-02-17T10:14:28.504Z,19.55
2023-02-17T10:17:00.444Z,19.60
2023-02-17T10:19:30.027Z,19.62
2023-02-17T10:22:20.798Z,19.65
2023-02-17T10:24:49.698Z,19.66
2023-02-17T10:27:16.293Z,19.66
2023-02-17T10:30:06.111Z,19.64
2023-02-17T10:32:37.427Z,19.68
2023-02-17T10:35:15.423Z,19.69
2023-02-17T10:37:49.143Z,19.71
2023-02-17T10:40:28.614Z,19.73
2023-02-17T10:42:57.406Z,19.75
2023-02-17T10:45:24.451Z,19.75
2023-02-17T10:47:59.505Z,19.76
2023-02-17T10:50:26.217Z,19.79
2023-02-17T10:52:53.404Z,19.75
2023-02-17T10:55:51.869Z,19.78
2023-02-17T10:58:45.435Z,19.78
2023-02-17T11:01:12.656Z,19.80
2023-02-17T11:03:42.258Z,19.78
2023-02-17T11:06:20.131Z,19.78
2023-02-17T11:08:52.760Z,19.76
2023-02-17T11:11:21.294Z,19.74
2023-02-17T11:14:06.493Z,19.73
2023-02-17T11:16:40.073Z,19.71
2023-02-17T11:19:08.234Z,19.71
2023-02-17T11:21:36.062Z,19.70
2023-02-17T11:24:05.764Z,19.70
2023-02-17T11:26:36.427Z,19.67
2023-02-17T11:29:21.210Z,19.65
2023-02-17T11:32:04.378Z,19.62
2023-02-17T11:34:34.832Z,19.59
2023-02-17T11:37:33.033Z,19.57
2023-02-17T11:40:02.054Z,19.56
2023-02-17T11:42:30.182Z,19.50
2023-02-17T11:44:58.716Z,19.43
2023-02-17T11:47:47.392Z,19.33
2023-02-17T11:50:31.802Z,19.30
2023-02-17T11:53:20.628Z,19.26
2023-02-17T11:56:08.864Z,19.30
2023-02-17T11:58:47.718Z,19.29
2023-02-17T12:01:17.412Z,19.27
2023-02-17T12:04:21.631Z,19.26
2023-02-17T12:07:03.417Z,19.24
2023-02-17T12:09:56.670Z,19.22
2023-02-17T12:12:29.508Z,19.19
2023-02-17T12:15:02.027Z,19.16
2023-02-17T12:17:51.940Z,19.15
2023-02-17T12:20:33.720Z,19.14
2023-02-17T12:23:18.919Z,19.13
2023-02-17T12:25:47.484Z,19.12
2023-02-17T12:28:43.272Z,19.10
2023-02-17T12:31:34.044Z,19.08
2023-02-17T12:34:09.853Z,19.07
2023-02-17T12:36:38.220Z,19.06
2023-02-17T12:39:17.858Z,19.07
2023-02-17T12:41:47.752Z,19.04
2023-02-17T12:44:32.891Z,19.04
2023-02-17T12:47:06.640Z,19.02
2023-02-17T12:49:40.057Z,19.01
2023-02-17T12:52:18.219Z,19.02
2023-02-17T12:55:23.196Z,18.90
2023-02-17T12:57:58.297Z,18.71
2023-02-17T13:00:41.471Z,18.62
2023-02-17T13:03:08.495Z,18.78
2023-02-17T13:05:40.070Z,18.83
2023-02-17T13:08:09.183Z,18.86
2023-02-17T13:10:38.063Z,18.85
2023-02-17T13:13:14.326Z,18.84
2023-02-17T13:15:49.884Z,18.85
2023-02-17T13:18:32.220Z,18.83
2023-02-17T13:21:15.435Z,18.84
2023-02-17T13:23:45.300Z,18.85
2023-02-17T13:26:20.681Z,18.83
2023-02-17T13:28:53.312Z,18.83
2023-02-17T13:31:28.821Z,18.83
2023-02-17T13:33:59.449Z,18.83
2023-02-17T13:36:29.049Z,18.86
2023-02-17T13:39:03.078Z,18.83
2023-02-17T13:41:33.498Z,18.83
2023-02-17T13:44:00.187Z,18.78
2023-02-17T13:46:27.210Z,18.80
2023-02-17T13:49:04.951Z,18.81
2023-02-17T13:51:32.417Z,18.79
2023-02-17T13:54:05.417Z,18.81
2023-02-17T13:56:32.180Z,18.82
2023-02-17T13:59:09.624Z,18.82
2023-02-17T14:01:37.665Z,18.82
2023-02-17T14:04:05.067Z,18.84
2023-02-17T14:06:43.085Z,18.82
2023-02-17T14:09:28.564Z,18.80
2023-02-17T14:14:42.452Z,18.81
2023-02-17T14:17:15.561Z,18.80
2023-02-17T14:19:49.023Z,18.80
2023-02-17T14:22:48.681Z,18.79
2023-02-17T14:25:27.615Z,18.81
2023-02-17T14:27:56.584Z,18.79
2023-02-17T14:30:39.297Z,18.80
2023-02-17T14:33:18.246Z,18.81
2023-02-17T14:35:54.661Z,18.80
2023-02-17T14:38:37.467Z,18.82
2023-02-17T14:41:05.485Z,18.83
2023-02-17T14:43:37.210Z,18.83
2023-02-17T14:46:04.178Z,18.81
2023-02-17T14:48:32.999Z,18.75
2023-02-17T14:51:02.146Z,18.82
2023-02-17T14:53:40.579Z,18.84
2023-02-17T14:56:37.608Z,18.83
2023-02-17T14:59:06.469Z,18.82
2023-02-17T15:01:33.317Z,18.82
2023-02-17T15:04:02.972Z,18.83
2023-02-17T15:06:43.895Z,18.85
2023-02-17T15:09:18.409Z,18.87
2023-02-17T15:11:49.192Z,18.88
2023-02-17T15:14:17.236Z,18.87
2023-02-17T15:16:47.125Z,18.85
2023-02-17T15:19:14.541Z,18.87
2023-02-17T15:21:45.015Z,18.85
2023-02-17T15:24:37.102Z,18.88
2023-02-17T15:27:09.502Z,18.82
2023-02-17T15:29:36.608Z,18.90
2023-02-17T15:32:06.533Z,18.88
2023-02-17T15:34:35.948Z,18.85
2023-02-17T15:37:02.783Z,18.85
2023-02-17T15:39:29.572Z,18.84
2023-02-17T15:41:59.387Z,18.84
2023-02-17T15:44:27.421Z,18.84
2023-02-17T15:46:54.995Z,18.83
2023-02-17T15:49:21.851Z,18.85
2023-02-17T15:51:48.516Z,18.85
2023-02-17T15:54:19.499Z,18.85
2023-02-17T15:56:52.435Z,18.85
2023-02-17T15:59:25.976Z,18.86
2023-02-17T16:01:56.126Z,18.85
2023-02-17T16:04:43.869Z,18.87
2023-02-17T16:07:12.678Z,18.87
2023-02-17T16:09:39.369Z,18.87
2023-02-17T16:12:08.609Z,18.87
2023-02-17T16:14:36.433Z,18.88
2023-02-17T16:17:03.812Z,18.90
2023-02-17T16:19:34.379Z,18.91
2023-02-17T16:22:01.002Z,18.92
2023-02-17T16:24:27.586Z,18.94
2023-02-17T16:26:56.385Z,18.96
2023-02-17T16:29:23.098Z,18.96
2023-02-17T16:31:52.740Z,18.97
2023-02-17T16:34:21.264Z,18.97
2023-02-17T16:36:53.113Z,18.96
2023-02-17T16:39:20.342Z,18.99
2023-02-17T16:41:47.560Z,18.98
2023-02-17T16:44:15.438Z,18.98
2023-02-17T16:47:01.735Z,18.92
2023-02-17T16:49:33.233Z,18.94
2023-02-17T16:52:03.923Z,18.92
2023-02-17T16:54:30.892Z,18.95
2023-02-17T16:56:57.665Z,18.95
2023-02-17T16:59:27.149Z,18.94
2023-02-17T17:01:53.954Z,18.93
2023-02-17T17:04:20.963Z,18.86
2023-02-17T17:06:49.515Z,18.90
2023-02-17T17:09:17.329Z,18.89
2023-02-17T17:11:44.301Z,18.92
2023-02-17T17:14:11.357Z,18.91
2023-02-17T17:16:40.215Z,18.94
2023-02-17T17:19:07.124Z,18.94
2023-02-17T17:21:36.109Z,18.93
2023-02-17T17:24:02.755Z,18.92
2023-02-17T17:26:32.915Z,18.96
2023-02-17T17:28:59.570Z,18.92
2023-02-17T17:31:29.489Z,18.93
2023-02-17T17:33:58.657Z,18.90
2023-02-17T17:36:33.688Z,18.90
2023-02-17T17:39:03.290Z,18.91
2023-02-17T17:41:30.134Z,18.92
2023-02-17T17:44:01.469Z,18.91
2023-02-17T17:46:29.703Z,18.91
2023-02-17T17:48:59.695Z,18.89
2023-02-17T17:51:30.013Z,18.91
2023-02-17T17:53:59.653Z,18.89
2023-02-17T17:56:31.088Z,18.88
2023-02-17T17:59:00.389Z,18.90
2023-02-17T18:01:27.298Z,18.89
2023-02-17T18:03:53.995Z,18.87
2023-02-17T18:06:23.510Z,18.87
2023-02-17T18:08:50.327Z,18.87
2023-02-17T18:11:17.971Z,18.87
2023-02-17T18:13:45.513Z,18.87
2023-02-17T18:16:15.334Z,18.87
2023-02-17T18:19:03.209Z,18.85
2023-02-17T18:21:30.072Z,18.84
2023-02-17T18:23:57.113Z,18.84
2023-02-17T18:26:26.946Z,18.84
2023-02-17T18:28:55.962Z,18.85
2023-02-17T18:31:25.211Z,18.83
2023-02-17T18:33:55.212Z,18.83
2023-02-17T18:36:23.810Z,18.83
2023-02-17T18:38:55.776Z,18.83
2023-02-17T18:41:27.812Z,18.83
2023-02-17T18:43:55.099Z,18.83
2023-02-17T18:46:21.790Z,18.82
2023-02-17T18:48:50.643Z,18.82
2023-02-17T18:51:23.129Z,18.82
2023-02-17T18:53:53.877Z,18.82
2023-02-17T18:56:25.788Z,18.81
2023-02-17T18:58:55.344Z,18.81
2023-02-17T19:01:22.885Z,18.81
2023-02-17T19:03:52.570Z,18.81
2023-02-17T19:06:26.065Z,18.81
2023-02-17T19:08:55.649Z,18.82
2023-02-17T19:11:23.246Z,18.80
2023-02-17T19:13:50.030Z,18.81
2023-02-17T19:16:21.438Z,18.81
2023-02-17T19:18:50.753Z,18.80
2023-02-17T19:21:20.569Z,18.77
2023-02-17T19:23:49.933Z,18.81
2023-02-17T19:26:19.487Z,18.81
2023-02-17T19:28:48.431Z,18.82
2023-02-17T19:31:17.201Z,18.82
2023-02-17T19:33:44.857Z,18.81
2023-02-17T19:36:16.381Z,18.83
2023-02-17T19:38:43.009Z,18.82
2023-02-17T19:41:13.142Z,18.80
2023-02-17T19:43:40.352Z,18.82
2023-02-17T19:46:07.411Z,18.81
2023-02-17T19:48:36.741Z,18.82
2023-02-17T19:51:05.171Z,18.82
2023-02-17T19:53:34.301Z,18.83
2023-02-17T19:56:24.399Z,18.82
2023-02-17T19:58:51.181Z,18.83
2023-02-17T20:01:21.121Z,18.79
2023-02-17T20:03:47.848Z,18.82
2023-02-17T20:06:19.506Z,18.82
2023-02-17T20:08:48.851Z,18.80
2023-02-17T20:11:17.623Z,18.82
2023-02-17T20:13:46.807Z,18.81
2023-02-17T20:16:14.525Z,18.82
2023-02-17T20:18:44.838Z,18.83
2023-02-17T20:21:12.717Z,18.83
2023-02-17T20:23:39.508Z,18.85
2023-02-17T20:26:10.384Z,18.85
2023-02-17T20:28:37.278Z,18.88
2023-02-17T20:31:08.741Z,18.89
2023-02-17T20:33:37.703Z,18.91
2023-02-17T20:36:07.856Z,18.90
2023-02-17T20:38:37.403Z,18.88
2023-02-17T20:41:05.264Z,18.90
2023-02-17T20:43:34.173Z,18.92
2023-02-17T20:46:00.853Z,18.94
2023-02-17T20:48:32.340Z,18.94
2023-02-17T20:51:01.360Z,18.91
2023-02-17T20:53:30.248Z,18.93
2023-02-17T20:56:01.682Z,18.92
2023-02-17T20:58:28.388Z,18.94
2023-02-17T21:00:55.014Z,18.95
2023-02-17T21:03:21.946Z,18.92
2023-02-17T21:05:49.145Z,18.94
2023-02-17T21:08:18.867Z,18.94
2023-02-17T21:10:45.702Z,18.91
2023-02-17T21:13:14.700Z,18.91
2023-02-17T21:15:45.086Z,18.91
2023-02-17T21:18:14.151Z,18.88
2023-02-17T21:20:42.954Z,18.86
2023-02-17T21:23:14.982Z,18.85
2023-02-17T21:25:44.023Z,18.86
2023-02-17T21:28:12.827Z,18.78
2023-02-17T21:30:39.585Z,18.84
2023-02-17T21:33:08.372Z,18.77
2023-02-17T21:35:37.249Z,18.82
2023-02-17T21:38:06.953Z,18.82
2023-02-17T21:40:43.354Z,18.80
2023-02-17T21:43:32.740Z,18.82
2023-02-17T21:46:01.683Z,18.80
2023-02-17T21:48:30.590Z,18.80
2023-02-17T21:51:13.742Z,18.80
2023-02-17T21:53:40.494Z,18.81
2023-02-17T21:56:07.693Z,18.72
2023-02-17T21:58:37.207Z,18.77
2023-02-17T22:01:05.348Z,18.80
2023-02-17T22:03:34.343Z,18.79
2023-02-17T22:06:01.123Z,18.79
2023-02-17T22:08:27.814Z,18.71
2023-02-17T22:10:54.519Z,18.78
2023-02-17T22:13:23.471Z,18.76
2023-02-17T22:15:59.426Z,18.74
2023-02-17T22:18:26.018Z,18.75
2023-02-17T22:20:54.939Z,17.57
2023-02-17T22:23:23.741Z,15.88
2023-02-17T22:25:55.116Z,16.90
2023-02-17T22:28:21.794Z,17.65
2023-02-17T22:30:52.405Z,17.89
2023-02-17T22:33:21.334Z,17.98
2023-02-17T22:36:03.317Z,18.01
2023-02-17T22:38:30.242Z,18.03
2023-02-17T22:40:56.904Z,18.04
2023-02-17T22:43:26.148Z,18.16
2023-02-17T22:46:02.463Z,18.15
2023-02-17T22:48:31.953Z,18.16
2023-02-17T22:50:58.699Z,18.18
2023-02-17T22:53:27.721Z,18.31
2023-02-17T22:55:55.232Z,18.29
2023-02-17T22:58:24.611Z,18.29
2023-02-17T23:01:11.676Z,18.31
2023-02-17T23:03:40.827Z,18.31
2023-02-17T23:06:18.377Z,18.33
2023-02-17T23:08:47.682Z,18.36
2023-02-17T23:11:19.446Z,18.39
2023-02-17T23:13:46.125Z,18.42
2023-02-17T23:16:22.300Z,18.42
2023-02-17T23:18:48.981Z,18.38
2023-02-17T23:21:15.791Z,18.47
2023-02-17T23:23:42.453Z,18.49
2023-02-17T23:26:11.245Z,18.50
2023-02-17T23:28:37.886Z,18.49
2023-02-17T23:31:07.663Z,18.52
2023-02-17T23:33:36.603Z,18.53
2023-02-17T23:36:07.254Z,18.53
2023-02-17T23:38:36.400Z,18.49
2023-02-17T23:41:05.171Z,18.55
2023-02-17T23:43:34.163Z,18.55
2023-02-17T23:46:01.033Z,18.56
2023-02-17T23:48:27.792Z,18.48
2023-02-17T23:51:06.911Z,18.56
2023-02-17T23:53:36.319Z,18.58
2023-02-17T23:56:07.960Z,18.58
2023-02-17T23:58:34.973Z,18.62
